Airfield :
LOGIN :

Register | Disclaimer

   EN    FR    IT 

 










Legend :    VFR   Marginal VFR   IFR   Intensive IFR   Very Intensive IFR
Visi :
Ceiling :
>= 8 km
>= 3000ft
5 to 8 km
1000 to 3000 ft
1500m to 5 km
500 to 1000 ft
800 to 1500m
200 to 500 ft
< 800m
< 200 ft
Symbols :   Thunderstorms  Fog  Heavy snow  Heavy precipitations  Wind > 20 kt
SIGMETs :     Misc.  Thunderstorms  Icing  Turbulence  Mountain Waves  Volcanic Ashes







- Airport Elevation : 1830 ft


EBLB - Butgenbach Elsenborn

CURRENT METAR :
  • 150955Z AUTO 19003KT 9999 NCD 19/06 Q1015 BLU

EXPIRED METARs :
  • 150925Z AUTO 19003KT 9999 SCT130/// 19/06 Q1015 BLU
  • 150855Z AUTO 20003KT 9999 BKN130/// 18/07 Q1015 BLU
  • 150825Z AUTO VRB01KT 9999 BKN120/// 15/07 Q1014 BLU
  • 150755Z AUTO VRB01KT 9999 BKN120/// BKN140/// 14/07 Q1014 BLU
  • 150725Z AUTO VRB01KT 9999 BKN120/// 13/07 Q1014 BLU

Expired Forecast.
No reported NOTAMs for that airfield.



MET'MAP, your aeronautical weather chart ! - Copyright ORBIFLY December 2007 - Disclaimer

ORBIFLY MET'MAP TEAM :

Programming & Development : Alexandra Zaïnal
Concept & Development : Baudouin d'Aumeries
Co-Development & Prog : Marc-Olivier Méhu
Technical & hardware support : Manuel Goepfert

Contact : metmap@orbifly.com




SOURCES & CREDITS :

   NOAA